This is the latest recevied weather packets stored in our database for station/object IZ1MEU-13. If no packets are shown the sender has not sent any weather packets the latest 10 day(s).
| Time | Temp. | Humidity | Pressure | Rain* | Wind** | Luminosity | Snow |
|---|---|---|---|---|---|---|---|
| 1777835220 | 12.78° C | 44% | 1019.3 hPa | - | - | - | - |
| 1777834016 | 12.78° C | 45% | 1019.2 hPa | - | - | - | - |
| 1777832812 | 13.33° C | 45% | 1019.1 hPa | - | - | - | - |
| 1777831609 | 13.89° C | 43% | 1019.1 hPa | - | - | - | - |
| 1777830405 | 14.44° C | 43% | 1019.2 hPa | - | - | - | - |
| 1777829202 | 15° C | 42% | 1019.3 hPa | - | - | - | - |
| 1777827998 | 16.11° C | 42% | 1019.2 hPa | - | - | - | - |
| 1777826794 | 16.11° C | 41% | 1019.3 hPa | - | - | - | - |
| 1777825590 | 16.67° C | 38% | 1019.4 hPa | - | - | - | - |
| 1777824386 | 17.78° C | 37% | 1019.4 hPa | - | - | - | - |
| 1777823182 | 18.33° C | 37% | 1019.4 hPa | - | - | - | - |
| 1777821979 | 18.89° C | 36% | 1019.5 hPa | - | - | - | - |
| 1777820775 | 18.89° C | 36% | 1019.7 hPa | - | - | - | - |
| 1777819571 | 20° C | 35% | 1019.9 hPa | - | - | - | - |
| 1777818367 | 19.44° C | 36% | 1019.7 hPa | - | - | - | - |
| 1777817164 | 18.89° C | 36% | 1020.2 hPa | - | - | - | - |
| 1777815960 | 18.89° C | 35% | 1020.4 hPa | - | - | - | - |
| 1777814756 | 19.44° C | 35% | 1020.4 hPa | - | - | - | - |
| 1777813552 | 20° C | 33% | 1020.6 hPa | - | - | - | - |
| 1777812349 | 20° C | 34% | 1020.9 hPa | - | - | - | - |
| 1777811145 | 21.67° C | 32% | 1021 hPa | - | - | - | - |
| 1777809941 | 21.11° C | 31% | 1021.3 hPa | - | - | - | - |
| 1777808737 | 21.67° C | 31% | 1021.1 hPa | - | - | - | - |
| 1777807533 | 22.78° C | 30% | 1021.1 hPa | - | - | - | - |
| 1777806330 | 21.67° C | 32% | 1021.2 hPa | - | - | - | - |
* Rain since midnight (hover to see other rain measurements)
** Current wind speed in m/s (hover to see current wind gust speed)